createdAt,value
2022-08-05T00:00:42.000Z,60.96
2022-08-05T00:00:42.000Z,60.96
2022-08-05T00:01:42.000Z,60.96
2022-08-05T00:01:42.000Z,60.96
2022-08-05T00:02:42.000Z,61.05
2022-08-05T00:02:42.000Z,61.05
2022-08-05T00:03:42.000Z,61.05
2022-08-05T00:03:42.000Z,61.05
2022-08-05T00:04:42.000Z,61.65
2022-08-05T00:05:42.000Z,61.55
2022-08-05T00:06:42.000Z,61.35
2022-08-05T00:07:42.000Z,61.35
2022-08-05T00:08:42.000Z,61.75
2022-08-05T00:09:42.000Z,62.15
2022-08-05T00:10:42.000Z,61.85
2022-08-05T00:11:42.000Z,61.98
2022-08-05T00:12:42.000Z,62.18
2022-08-05T00:13:42.000Z,61.98
2022-08-05T00:14:42.000Z,62.27
2022-08-05T00:14:42.000Z,62.27
2022-08-05T00:15:42.000Z,61.98
2022-08-05T00:15:42.000Z,61.98
2022-08-05T00:16:42.000Z,62.37
2022-08-05T00:16:42.000Z,62.37
2022-08-05T00:17:42.000Z,62.37
2022-08-05T00:17:42.000Z,62.37
2022-08-05T00:18:42.000Z,62.27
2022-08-05T00:18:42.000Z,62.27
2022-08-05T00:19:42.000Z,61.98
2022-08-05T00:20:42.000Z,62.07
2022-08-05T00:21:42.000Z,62.47
2022-08-05T00:22:42.000Z,62.57
2022-08-05T00:23:42.000Z,62.37
2022-08-05T00:24:42.000Z,62.40
2022-08-05T00:25:42.000Z,62.70
2022-08-05T00:26:42.000Z,63.00
2022-08-05T00:27:42.000Z,63.49
2022-08-05T00:28:42.000Z,63.79
2022-08-05T00:29:42.000Z,63.79
2022-08-05T00:29:42.000Z,63.79
2022-08-05T00:29:42.000Z,63.79
2022-08-05T00:30:42.000Z,63.79
2022-08-05T00:30:42.000Z,63.79
2022-08-05T00:30:42.000Z,63.79
2022-08-05T00:31:42.000Z,63.40
2022-08-05T00:31:42.000Z,63.40
2022-08-05T00:31:42.000Z,63.40
2022-08-05T00:32:42.000Z,63.49
2022-08-05T00:32:42.000Z,63.49
2022-08-05T00:32:42.000Z,63.49
2022-08-05T00:33:42.000Z,63.30
2022-08-05T00:33:42.000Z,63.30
2022-08-05T00:33:42.000Z,63.30
2022-08-05T00:34:42.000Z,63.00
2022-08-05T00:34:42.000Z,63.00
2022-08-05T00:35:42.000Z,62.90
2022-08-05T00:35:42.000Z,62.90
2022-08-05T00:36:42.000Z,63.10
2022-08-05T00:36:42.000Z,63.10
2022-08-05T00:37:42.000Z,63.20
2022-08-05T00:37:42.000Z,63.20
2022-08-05T00:38:42.000Z,63.00
2022-08-05T00:38:42.000Z,63.00
2022-08-05T00:39:42.000Z,63.20
2022-08-05T00:40:42.000Z,63.30
2022-08-05T00:41:42.000Z,63.30
2022-08-05T00:42:42.000Z,63.49
2022-08-05T00:43:42.000Z,63.89
2022-08-05T00:44:42.000Z,63.89
2022-08-05T00:45:42.000Z,63.73
2022-08-05T00:46:42.000Z,63.70
2022-08-05T00:47:42.000Z,63.63
2022-08-05T00:48:42.000Z,63.33
2022-08-05T00:49:42.000Z,63.43
2022-08-05T00:50:42.000Z,63.53
2022-08-05T00:51:42.000Z,63.73
2022-08-05T00:52:42.000Z,64.12
2022-08-05T00:53:42.000Z,64.32
2022-08-05T00:54:42.000Z,64.52
2022-08-05T00:55:42.000Z,64.32
2022-08-05T00:56:42.000Z,64.12
2022-08-05T00:57:42.000Z,64.42
2022-08-05T00:58:42.000Z,64.62
2022-08-05T00:59:42.000Z,64.52
2022-08-05T01:00:42.000Z,64.42
2022-08-05T01:01:42.000Z,64.32
2022-08-05T01:02:42.000Z,64.62
2022-08-05T01:03:42.000Z,64.65
2022-08-05T01:04:42.000Z,64.75
2022-08-05T01:04:42.000Z,64.75
2022-08-05T01:05:42.000Z,64.55
2022-08-05T01:05:42.000Z,64.55
2022-08-05T01:06:42.000Z,64.95
2022-08-05T01:06:42.000Z,64.95
2022-08-05T01:07:42.000Z,64.36
2022-08-05T01:07:42.000Z,64.36
2022-08-05T01:08:42.000Z,64.65
2022-08-05T01:08:42.000Z,64.65
2022-08-05T01:09:42.000Z,64.85
2022-08-05T01:10:42.000Z,64.85
2022-08-05T01:11:42.000Z,64.85
2022-08-05T01:12:42.000Z,64.75
2022-08-05T01:13:42.000Z,65.05
2022-08-05T01:14:42.000Z,64.75
2022-08-05T01:14:42.000Z,64.75
2022-08-05T01:15:42.000Z,64.85
2022-08-05T01:15:42.000Z,64.85
2022-08-05T01:16:42.000Z,65.15
2022-08-05T01:16:42.000Z,65.15
2022-08-05T01:17:42.000Z,65.35
2022-08-05T01:17:42.000Z,65.35
2022-08-05T01:18:42.000Z,65.45
2022-08-05T01:18:42.000Z,65.45
2022-08-05T01:19:42.000Z,65.55
2022-08-05T01:20:42.000Z,65.45
2022-08-05T01:21:42.000Z,65.35
2022-08-05T01:22:42.000Z,65.64
2022-08-05T01:23:42.000Z,64.98
2022-08-05T01:24:42.000Z,65.78
2022-08-05T01:25:42.000Z,65.88
2022-08-05T01:26:42.000Z,65.28
2022-08-05T01:27:41.000Z,65.68
2022-08-05T01:28:41.000Z,65.98
2022-08-05T01:29:41.000Z,65.58
2022-08-05T01:30:41.000Z,65.48
2022-08-05T01:31:41.000Z,65.58
2022-08-05T01:32:41.000Z,66.01
2022-08-05T01:33:41.000Z,66.11
2022-08-05T04:36:18.000Z,67.03
2022-08-05T04:36:18.000Z,67.03
2022-08-05T04:36:18.000Z,66.94
2022-08-05T04:36:18.000Z,66.94
2022-08-05T04:36:18.000Z,67.03
2022-08-05T04:37:18.000Z,66.64
2022-08-05T04:37:18.000Z,66.64
2022-08-05T04:38:18.000Z,67.03
2022-08-05T04:38:18.000Z,67.03
2022-08-05T04:39:18.000Z,67.13
2022-08-05T04:39:18.000Z,67.13
2022-08-05T04:40:18.000Z,67.63
2022-08-05T04:40:18.000Z,67.63
2022-08-05T04:41:18.000Z,68.03
2022-08-05T04:42:18.000Z,68.73
2022-08-05T04:43:18.000Z,68.73
2022-08-05T04:44:18.000Z,68.73
2022-08-05T04:45:18.000Z,68.93
2022-08-05T05:49:30.000Z,63.28
2022-08-05T05:49:30.000Z,64.57
2022-08-05T05:49:30.000Z,64.57
2022-08-05T05:49:30.000Z,63.28
2022-08-05T05:50:30.000Z,63.48
2022-08-05T05:50:30.000Z,63.48
2022-08-05T05:51:30.000Z,63.28
2022-08-05T05:52:30.000Z,63.21
2022-08-05T05:53:30.000Z,63.91
2022-08-05T05:54:30.000Z,64.04
2022-08-05T05:55:30.000Z,64.96
2022-08-05T05:56:30.000Z,64.76
2022-08-05T05:56:30.000Z,64.76
2022-08-05T05:57:30.000Z,65.06
2022-08-05T05:57:30.000Z,65.06
2022-08-05T05:58:30.000Z,65.59
2022-08-05T05:58:30.000Z,65.59
2022-08-05T05:59:30.000Z,65.49
2022-08-05T05:59:30.000Z,65.49
2022-08-05T06:00:30.000Z,65.39
2022-08-05T06:00:30.000Z,65.39
2022-08-05T06:01:30.000Z,65.62
2022-08-05T06:02:30.000Z,66.81
2022-08-05T06:03:30.000Z,67.01
2022-08-05T06:04:30.000Z,67.34
2022-08-05T06:05:30.000Z,67.67
2022-08-05T06:07:47.000Z,68.10
2022-08-05T06:07:47.000Z,68.40
2022-08-05T06:07:47.000Z,68.10
2022-08-05T06:07:47.000Z,68.40
2022-08-05T06:08:47.000Z,68.70
2022-08-05T06:08:47.000Z,68.70
2022-08-05T06:09:47.000Z,69.09
2022-08-05T06:09:47.000Z,69.09
2022-08-05T06:10:47.000Z,69.62
2022-08-05T06:10:47.000Z,69.62
2022-08-05T06:11:47.000Z,69.23
2022-08-05T06:12:47.000Z,70.22
2022-08-05T06:13:47.000Z,70.03
2022-08-05T06:14:47.000Z,69.92
2022-08-05T06:15:46.000Z,70.32
2022-08-05T06:16:46.000Z,70.22
2022-08-05T06:17:46.000Z,70.15
2022-08-05T06:18:46.000Z,70.95
2022-08-05T06:19:46.000Z,70.45
2022-08-05T06:20:46.000Z,70.95
2022-08-05T06:21:46.000Z,71.35
2022-08-05T06:22:46.000Z,71.25
2022-08-05T06:23:46.000Z,70.56
2022-08-05T06:24:46.000Z,71.45
2022-08-05T06:25:46.000Z,71.25
2022-08-05T06:26:46.000Z,71.65
2022-08-05T06:27:46.000Z,71.84
2022-08-05T06:28:46.000Z,71.84
2022-08-05T06:29:46.000Z,72.34
2022-08-05T06:30:46.000Z,72.64
2022-08-05T06:31:46.000Z,74.04
2022-08-05T06:32:46.000Z,78.48
2022-08-05T06:33:46.000Z,79.97
2022-08-05T06:34:46.000Z,80.77
2022-08-05T06:35:46.000Z,79.51
2022-08-05T06:36:46.000Z,78.81
2022-08-05T06:37:46.000Z,77.32
2022-08-05T06:38:46.000Z,77.72
2022-08-05T06:39:46.000Z,77.95
2022-08-05T06:40:46.000Z,77.66
2022-08-05T06:41:46.000Z,78.16
2022-08-05T06:42:46.000Z,78.35
2022-08-05T06:43:46.000Z,77.66
2022-08-05T06:44:46.000Z,78.19
2022-08-05T06:45:46.000Z,78.49
2022-08-05T06:46:46.000Z,78.49
2022-08-05T06:47:46.000Z,78.79
2022-08-05T06:48:46.000Z,78.49
2022-08-05T06:49:46.000Z,78.79
2022-08-05T06:50:46.000Z,80.08
2022-08-05T06:51:46.000Z,79.28
2022-08-05T06:51:46.000Z,79.28
2022-08-05T06:52:46.000Z,78.59
2022-08-05T06:52:46.000Z,78.59
2022-08-05T06:53:46.000Z,79.39
2022-08-05T06:53:46.000Z,79.39
2022-08-05T06:54:46.000Z,79.09
2022-08-05T06:54:46.000Z,79.09
2022-08-05T06:55:46.000Z,78.59
2022-08-05T06:55:46.000Z,78.59
2022-08-05T06:56:46.000Z,78.89
2022-08-05T06:57:46.000Z,79.19
2022-08-05T06:58:46.000Z,78.89
2022-08-05T06:59:46.000Z,78.69
2022-08-05T07:00:46.000Z,79.39
2022-08-05T07:01:46.000Z,78.55
2022-08-05T07:02:46.000Z,78.45
2022-08-05T07:03:46.000Z,79.15
2022-08-05T07:04:46.000Z,78.35
2022-08-05T07:05:46.000Z,77.76
2022-08-05T07:06:46.000Z,78.75
2022-08-05T07:07:46.000Z,78.16
2022-08-05T07:08:46.000Z,77.26
2022-08-05T07:09:46.000Z,75.57
2022-08-05T07:10:46.000Z,75.93
2022-08-05T07:11:46.000Z,77.22
2022-08-05T07:11:46.000Z,77.22
2022-08-05T07:12:46.000Z,76.92
2022-08-05T07:12:46.000Z,76.92
2022-08-05T07:13:46.000Z,76.72
2022-08-05T07:13:46.000Z,76.72
2022-08-05T07:14:46.000Z,76.39
2022-08-05T07:14:46.000Z,76.39
2022-08-05T07:15:46.000Z,75.79
2022-08-05T07:15:46.000Z,75.79
2022-08-05T07:16:46.000Z,75.59
2022-08-05T07:17:46.000Z,75.59
2022-08-05T07:18:46.000Z,75.56
2022-08-05T07:19:46.000Z,75.56
2022-08-05T07:20:46.000Z,74.26
2022-08-05T07:36:16.000Z,70.09
2022-08-05T07:36:16.000Z,70.39
2022-08-05T07:36:16.000Z,70.09
2022-08-05T07:36:16.000Z,70.39
2022-08-05T07:37:16.000Z,69.16
2022-08-05T07:37:16.000Z,69.16
2022-08-05T07:38:16.000Z,69.26
2022-08-05T07:38:16.000Z,69.26
2022-08-05T07:39:16.000Z,70.06
2022-08-05T07:40:16.000Z,70.25
2022-08-05T07:41:16.000Z,70.15
2022-08-05T07:42:16.000Z,70.22
2022-08-05T07:43:16.000Z,70.51
2022-08-05T07:44:16.000Z,69.39
2022-08-05T07:45:16.000Z,67.31
2022-08-05T07:46:16.000Z,66.39
2022-08-05T07:47:16.000Z,67.54
2022-08-05T07:48:16.000Z,67.61
2022-08-05T07:49:16.000Z,67.47
2022-08-05T07:49:16.000Z,67.47
2022-08-05T07:50:16.000Z,65.10
2022-08-05T07:50:16.000Z,65.10
2022-08-05T07:51:16.000Z,63.49
2022-08-05T07:51:16.000Z,63.49
2022-08-05T07:52:16.000Z,63.19
2022-08-05T07:52:16.000Z,63.19
2022-08-05T07:53:16.000Z,63.29
2022-08-05T07:53:16.000Z,63.29
2022-08-05T07:54:16.000Z,62.57
2022-08-05T07:55:16.000Z,61.88
2022-08-05T07:56:16.000Z,61.78
2022-08-05T07:57:16.000Z,62.34
2022-08-05T07:58:16.000Z,61.45
2022-08-05T08:07:55.000Z,61.98
2022-08-05T08:07:55.000Z,61.08
2022-08-05T08:08:55.000Z,61.98
2022-08-05T08:09:55.000Z,61.48
2022-08-05T08:10:55.000Z,63.13
2022-08-05T08:10:55.000Z,63.13
2022-08-05T08:11:55.000Z,62.44
2022-08-05T08:11:55.000Z,62.44
2022-08-05T08:12:55.000Z,63.23
2022-08-05T08:12:55.000Z,63.23
2022-08-05T08:13:55.000Z,62.44
2022-08-05T08:13:55.000Z,62.44
2022-08-05T08:14:54.000Z,63.33
2022-08-05T08:14:54.000Z,63.33
2022-08-05T08:15:54.000Z,64.02
2022-08-05T08:16:54.000Z,62.63
2022-08-05T08:17:54.000Z,61.58
2022-08-05T08:18:54.000Z,61.98
2022-08-05T08:19:54.000Z,61.58
2022-08-05T08:31:05.000Z,61.94
2022-08-05T08:31:05.000Z,61.05
2022-08-05T08:32:05.000Z,61.55
2022-08-05T08:33:05.000Z,62.24
2022-08-05T08:34:05.000Z,60.63
2022-08-05T08:35:05.000Z,59.55
2022-08-05T08:36:05.000Z,61.62
2022-08-05T08:37:05.000Z,61.03
2022-08-05T08:38:05.000Z,61.72
2022-08-05T08:39:05.000Z,61.03
2022-08-05T08:40:05.000Z,60.11
2022-08-05T08:40:05.000Z,60.11
2022-08-05T08:41:05.000Z,59.91
2022-08-05T08:41:05.000Z,59.91
2022-08-05T08:42:05.000Z,60.67
2022-08-05T08:42:05.000Z,60.67
2022-08-05T08:43:05.000Z,58.67
2022-08-05T08:43:05.000Z,58.67
2022-08-05T08:44:05.000Z,58.74
2022-08-05T08:44:05.000Z,58.74
2022-08-05T08:45:05.000Z,59.20
2022-08-05T08:46:05.000Z,58.59
2022-08-05T08:47:05.000Z,57.40
2022-08-05T08:48:05.000Z,56.91
2022-08-05T08:49:05.000Z,54.62
2022-08-05T08:55:30.000Z,54.74
2022-08-05T08:55:30.000Z,54.32
2022-08-05T08:55:30.000Z,54.32
2022-08-05T08:55:30.000Z,54.74
2022-08-05T08:56:30.000Z,53.70
2022-08-05T08:56:30.000Z,53.70
2022-08-05T08:57:30.000Z,50.93
2022-08-05T08:57:30.000Z,50.93
2022-08-05T08:58:30.000Z,49.85
2022-08-05T08:58:30.000Z,49.85
2022-08-05T08:59:30.000Z,50.32
2022-08-05T09:00:30.000Z,50.68
2022-08-05T09:01:30.000Z,49.53
2022-08-05T09:02:30.000Z,49.92
2022-08-05T09:03:30.000Z,48.43
2022-08-05T09:23:20.000Z,74.04
2022-08-05T09:23:20.000Z,70.99
2022-08-05T09:23:20.000Z,70.99
2022-08-05T09:23:20.000Z,74.04
2022-08-05T09:24:20.000Z,71.22
2022-08-05T09:24:20.000Z,71.22
2022-08-05T09:25:20.000Z,67.51
2022-08-05T09:26:20.000Z,70.44
2022-08-05T09:27:20.000Z,73.93
2022-08-05T09:28:20.000Z,73.67
2022-08-05T09:29:19.000Z,73.21
2022-08-05T09:30:19.000Z,72.22
2022-08-05T09:31:19.000Z,72.35
2022-08-05T09:32:19.000Z,75.95
2022-08-05T09:33:19.000Z,77.87
2022-08-05T09:34:19.000Z,79.29
2022-08-05T09:35:19.000Z,76.62
2022-08-05T09:36:19.000Z,80.12
2022-08-05T09:37:19.000Z,82.30
2022-08-05T09:38:19.000Z,83.78
2022-08-05T09:39:19.000Z,85.41
2022-08-05T09:40:19.000Z,86.54
2022-08-05T09:40:19.000Z,86.54
2022-08-05T09:41:19.000Z,87.73
2022-08-05T09:41:19.000Z,87.73
2022-08-05T09:42:19.000Z,88.82
2022-08-05T09:42:19.000Z,88.82
2022-08-05T09:43:19.000Z,89.76
2022-08-05T09:43:19.000Z,89.76
2022-08-05T09:44:19.000Z,90.35
2022-08-05T09:44:19.000Z,90.35
2022-08-05T09:45:19.000Z,90.65
2022-08-05T09:46:19.000Z,90.80
2022-08-05T09:47:19.000Z,91.89
2022-08-05T09:48:19.000Z,91.70
2022-08-05T09:49:19.000Z,88.58
2022-08-05T10:11:37.000Z,79.55
2022-08-05T10:11:37.000Z,82.71
2022-08-05T10:12:37.000Z,80.34
2022-08-05T10:13:37.000Z,79.98
2022-08-05T10:14:37.000Z,77.80
2022-08-05T10:15:37.000Z,76.56
2022-08-05T10:16:37.000Z,78.63
2022-08-05T10:17:37.000Z,77.15
2022-08-05T10:18:37.000Z,80.02
2022-08-05T10:19:37.000Z,80.41
2022-08-05T10:20:37.000Z,79.72
2022-08-05T10:21:37.000Z,79.52
2022-08-05T10:22:37.000Z,76.45
2022-08-05T10:23:37.000Z,76.42
2022-08-05T10:24:36.000Z,77.61
2022-08-05T10:25:36.000Z,79.45
2022-08-05T10:25:36.000Z,79.45
2022-08-05T10:25:36.000Z,79.45
2022-08-05T10:26:36.000Z,78.42
2022-08-05T10:26:36.000Z,78.42
2022-08-05T10:26:36.000Z,78.42
2022-08-05T10:27:36.000Z,75.62
2022-08-05T10:27:36.000Z,75.62
2022-08-05T10:27:36.000Z,75.62
2022-08-05T10:28:36.000Z,72.61
2022-08-05T10:28:36.000Z,72.61
2022-08-05T10:28:36.000Z,72.61
2022-08-05T10:29:36.000Z,71.83
2022-08-05T10:29:36.000Z,71.83
2022-08-05T10:29:36.000Z,71.83
2022-08-05T10:30:36.000Z,73.57
2022-08-05T10:30:36.000Z,73.57
2022-08-05T10:31:36.000Z,72.68
2022-08-05T10:31:36.000Z,72.68
2022-08-05T10:32:36.000Z,70.97
2022-08-05T10:32:36.000Z,70.97
2022-08-05T10:33:36.000Z,69.82
2022-08-05T10:33:36.000Z,69.82
2022-08-05T10:34:36.000Z,70.08
2022-08-05T10:34:36.000Z,70.08
2022-08-05T10:35:36.000Z,71.66
2022-08-05T10:36:36.000Z,70.57
2022-08-05T10:37:36.000Z,70.34
2022-08-05T10:38:36.000Z,69.55
2022-08-05T10:39:36.000Z,68.43
2022-08-05T10:40:36.000Z,72.05
2022-08-05T10:41:36.000Z,66.20
2022-08-05T10:42:36.000Z,65.18
2022-08-05T10:43:36.000Z,63.38
2022-08-05T10:44:36.000Z,61.71
2022-08-05T10:45:36.000Z,63.74
2022-08-05T10:46:36.000Z,62.76
2022-08-05T10:47:36.000Z,63.42
2022-08-05T10:48:36.000Z,64.66
2022-08-05T10:49:36.000Z,64.56
2022-08-05T10:50:36.000Z,62.37
2022-08-05T10:50:36.000Z,62.37
2022-08-05T10:51:36.000Z,58.02
2022-08-05T10:51:36.000Z,58.02
2022-08-05T10:52:36.000Z,59.79
2022-08-05T10:52:36.000Z,59.79
2022-08-05T10:53:36.000Z,62.12
2022-08-05T10:53:36.000Z,62.12
2022-08-05T10:54:36.000Z,57.38
2022-08-05T10:54:36.000Z,57.38
2022-08-05T10:55:36.000Z,58.14
2022-08-05T10:56:36.000Z,58.23
2022-08-05T10:57:36.000Z,56.93
2022-08-05T10:58:36.000Z,58.67
2022-08-05T10:59:36.000Z,55.41
2022-08-05T11:02:53.000Z,54.96
2022-08-05T11:02:53.000Z,53.81
2022-08-05T11:03:53.000Z,51.44
2022-08-05T11:04:53.000Z,52.00
2022-08-05T11:05:53.000Z,52.66
2022-08-05T11:05:53.000Z,52.66
2022-08-05T11:06:53.000Z,52.37
2022-08-05T11:06:53.000Z,52.37
2022-08-05T11:07:53.000Z,51.27
2022-08-05T11:07:53.000Z,51.27
2022-08-05T11:08:53.000Z,48.24
2022-08-05T11:08:53.000Z,48.24
2022-08-05T11:09:53.000Z,49.71
2022-08-05T11:09:53.000Z,49.71
2022-08-05T11:10:53.000Z,50.68
2022-08-05T11:11:53.000Z,49.61
2022-08-05T11:12:53.000Z,51.27
2022-08-05T11:13:53.000Z,49.29
2022-08-05T11:14:53.000Z,49.29
2022-08-05T11:15:53.000Z,48.90
2022-08-05T11:16:53.000Z,47.83
2022-08-05T11:17:53.000Z,48.12
2022-08-05T11:18:52.000Z,48.02
2022-08-05T11:19:52.000Z,48.41
2022-08-05T11:20:52.000Z,49.19
2022-08-05T11:20:52.000Z,49.19
2022-08-05T11:21:52.000Z,50.26
2022-08-05T11:21:52.000Z,50.26
2022-08-05T11:22:52.000Z,50.04
2022-08-05T11:22:52.000Z,50.04
2022-08-05T11:23:52.000Z,47.71
2022-08-05T11:23:52.000Z,47.71
2022-08-05T11:24:52.000Z,47.31
2022-08-05T11:24:52.000Z,47.31
2022-08-05T11:25:52.000Z,48.49
2022-08-05T11:26:52.000Z,46.83
2022-08-05T11:27:52.000Z,47.61
2022-08-05T11:28:52.000Z,49.44
2022-08-05T11:29:52.000Z,46.90
2022-08-05T11:30:52.000Z,50.02
2022-08-05T11:30:52.000Z,50.02
2022-08-05T11:31:52.000Z,48.14
2022-08-05T11:31:52.000Z,48.14
2022-08-05T11:32:52.000Z,46.10
2022-08-05T11:32:52.000Z,46.10
2022-08-05T11:33:52.000Z,45.98
2022-08-05T11:33:52.000Z,45.98
2022-08-05T11:34:52.000Z,46.56
2022-08-05T11:34:52.000Z,46.56
2022-08-05T11:35:52.000Z,47.32
2022-08-05T11:36:52.000Z,45.47
2022-08-05T11:37:52.000Z,43.40
2022-08-05T11:38:52.000Z,45.84
2022-08-05T11:39:52.000Z,45.15
2022-08-05T11:57:38.000Z,38.68
2022-08-05T11:57:38.000Z,38.29
2022-08-05T11:57:38.000Z,38.29
2022-08-05T11:57:38.000Z,38.68
2022-08-05T11:58:38.000Z,39.55
2022-08-05T11:58:38.000Z,39.55
2022-08-05T11:59:38.000Z,39.82
2022-08-05T11:59:38.000Z,39.82
2022-08-05T12:00:38.000Z,38.35
2022-08-05T12:00:38.000Z,38.35
2022-08-05T12:01:38.000Z,37.48
2022-08-05T12:02:38.000Z,39.24
2022-08-05T12:03:38.000Z,36.52
2022-08-05T12:04:38.000Z,37.81
2022-08-05T12:05:38.000Z,39.84
2022-08-05T12:06:38.000Z,37.81
2022-08-05T12:07:38.000Z,41.30
2022-08-05T12:08:38.000Z,38.85
2022-08-05T12:09:38.000Z,38.09
2022-08-05T12:10:38.000Z,39.76
2022-08-05T12:11:38.000Z,39.70
2022-08-05T12:12:38.000Z,39.70
2022-08-05T12:13:38.000Z,39.29
2022-08-05T12:14:38.000Z,37.94
2022-08-05T12:15:38.000Z,39.49
2022-08-05T12:16:38.000Z,38.04
2022-08-05T12:17:38.000Z,39.74
2022-08-05T12:18:38.000Z,39.92
2022-08-05T12:19:38.000Z,39.04
2022-08-05T12:20:38.000Z,37.77
2022-08-05T12:21:38.000Z,36.99
2022-08-05T12:22:38.000Z,38.15
2022-08-05T12:23:38.000Z,37.87
2022-08-05T12:24:38.000Z,39.24
2022-08-05T12:25:38.000Z,37.87
2022-08-05T12:26:38.000Z,38.73
2022-08-05T12:26:38.000Z,38.73
2022-08-05T12:27:38.000Z,38.04
2022-08-05T12:27:38.000Z,38.04
2022-08-05T12:28:38.000Z,34.83
2022-08-05T12:28:38.000Z,34.83
2022-08-05T12:29:38.000Z,34.54
2022-08-05T12:29:38.000Z,34.54
2022-08-05T12:30:38.000Z,35.68
2022-08-05T12:30:38.000Z,35.68
2022-08-05T12:31:38.000Z,33.65
2022-08-05T12:32:38.000Z,34.83
2022-08-05T12:33:38.000Z,34.92
2022-08-05T12:34:38.000Z,33.29
2022-08-05T12:35:38.000Z,34.27
2022-08-05T12:36:38.000Z,35.35
2022-08-05T12:37:38.000Z,36.54
2022-08-05T12:38:38.000Z,34.83
2022-08-05T12:39:38.000Z,35.43
2022-08-05T12:40:38.000Z,35.55
2022-08-05T12:41:38.000Z,36.13
2022-08-05T12:42:38.000Z,36.65
2022-08-05T12:43:38.000Z,37.74
2022-08-05T12:44:38.000Z,36.79
2022-08-05T12:45:38.000Z,39.04
2022-08-05T12:46:38.000Z,38.96
2022-08-05T12:47:38.000Z,36.74
2022-08-05T12:48:38.000Z,38.40
2022-08-05T12:49:38.000Z,38.61
2022-08-05T12:50:38.000Z,38.24
2022-08-05T13:05:49.000Z,42.80
2022-08-05T13:05:49.000Z,43.88
2022-08-05T13:06:49.000Z,43.90
2022-08-05T13:07:49.000Z,44.70
2022-08-05T13:08:49.000Z,44.60
2022-08-05T13:09:49.000Z,44.60
2022-08-05T13:10:49.000Z,44.51
2022-08-05T13:11:49.000Z,45.12
2022-08-05T13:27:21.000Z,43.60
2022-08-05T13:27:21.000Z,43.33
2022-08-05T13:28:21.000Z,41.31
2022-08-05T13:29:21.000Z,43.93
2022-08-05T13:30:21.000Z,42.35
2022-08-05T14:45:31.000Z,41.62
2022-08-05T14:45:31.000Z,41.62
2022-08-05T14:45:31.000Z,41.62
2022-08-05T14:45:31.000Z,41.62
2022-08-05T14:45:31.000Z,41.62
2022-08-05T14:45:31.000Z,41.62
2022-08-05T14:46:31.000Z,42.02
2022-08-05T14:46:31.000Z,42.02
2022-08-05T14:46:31.000Z,42.02
2022-08-05T14:47:31.000Z,42.70
2022-08-05T14:47:31.000Z,42.70
2022-08-05T14:47:31.000Z,42.70
2022-08-05T14:48:31.000Z,41.29
2022-08-05T14:48:31.000Z,41.29
2022-08-05T14:48:31.000Z,41.29
2022-08-05T14:49:31.000Z,41.58
2022-08-05T14:49:31.000Z,41.58
2022-08-05T14:50:31.000Z,41.68
2022-08-05T14:50:31.000Z,41.68
2022-08-05T14:51:31.000Z,41.49
2022-08-05T14:51:31.000Z,41.49
2022-08-05T14:52:31.000Z,41.88
2022-08-05T14:52:31.000Z,41.88
2022-08-05T14:53:31.000Z,40.97
2022-08-05T14:53:31.000Z,40.97
2022-08-05T14:54:31.000Z,41.36
2022-08-05T14:55:31.000Z,41.35
2022-08-05T14:56:31.000Z,41.64
2022-08-05T14:57:31.000Z,42.15
2022-08-05T14:58:31.000Z,40.56
2022-08-05T15:11:48.000Z,53.70
2022-08-05T15:11:48.000Z,53.49
2022-08-05T15:12:48.000Z,54.43
2022-08-05T15:13:48.000Z,54.72
2022-08-05T15:14:48.000Z,55.24
2022-08-05T15:15:48.000Z,55.83
2022-08-05T15:15:48.000Z,55.83
2022-08-05T15:16:48.000Z,56.05
2022-08-05T15:16:48.000Z,56.05
2022-08-05T15:17:48.000Z,56.25
2022-08-05T15:17:48.000Z,56.25
2022-08-05T15:18:48.000Z,56.57
2022-08-05T15:18:48.000Z,56.57
2022-08-05T15:19:48.000Z,56.48
2022-08-05T15:19:48.000Z,56.48
2022-08-05T15:20:48.000Z,56.50
2022-08-05T15:21:48.000Z,56.90
2022-08-05T15:22:48.000Z,56.99
2022-08-05T15:23:48.000Z,57.26
2022-08-05T15:24:48.000Z,57.06
2022-08-05T15:25:48.000Z,56.48
2022-08-05T15:26:48.000Z,56.08
2022-08-05T15:27:48.000Z,56.90
2022-08-05T15:28:48.000Z,57.12
2022-08-05T15:29:48.000Z,58.04
2022-08-05T15:30:48.000Z,58.14
2022-08-05T15:30:48.000Z,58.14
2022-08-05T15:31:48.000Z,58.16
2022-08-05T15:31:48.000Z,58.16
2022-08-05T15:32:48.000Z,58.46
2022-08-05T15:32:48.000Z,58.46
2022-08-05T15:33:48.000Z,58.59
2022-08-05T15:33:48.000Z,58.59
2022-08-05T15:34:48.000Z,59.11
2022-08-05T15:34:48.000Z,59.11
2022-08-05T15:35:48.000Z,59.83
2022-08-05T15:36:48.000Z,60.42
2022-08-05T15:37:48.000Z,60.85
2022-08-05T15:38:48.000Z,61.47
2022-08-05T15:39:48.000Z,61.96
2022-08-05T15:42:05.000Z,61.90
2022-08-05T15:42:05.000Z,63.02
2022-08-05T15:43:05.000Z,63.94
2022-08-05T15:44:05.000Z,64.14
2022-08-05T15:45:05.000Z,64.47
2022-08-05T15:46:05.000Z,64.96
2022-08-05T15:47:05.000Z,64.86
2022-08-05T15:48:05.000Z,65.09
2022-08-05T15:49:05.000Z,65.89
2022-08-05T15:50:05.000Z,65.99
2022-08-05T15:51:05.000Z,65.29
2022-08-05T15:52:05.000Z,64.89
2022-08-05T15:53:05.000Z,65.12
2022-08-05T15:54:05.000Z,65.12
2022-08-05T15:55:05.000Z,65.02
2022-08-05T15:56:05.000Z,64.46
2022-08-05T15:57:05.000Z,64.26
2022-08-05T15:58:05.000Z,64.26
2022-08-05T15:59:05.000Z,64.49
2022-08-05T16:00:05.000Z,65.12
2022-08-05T16:01:05.000Z,65.12
2022-08-05T16:02:05.000Z,65.84
2022-08-05T16:03:05.000Z,66.38
2022-08-05T16:04:05.000Z,66.77
2022-08-05T16:05:05.000Z,67.50
2022-08-05T16:06:05.000Z,67.40
2022-08-05T16:07:05.000Z,67.90
2022-08-05T16:08:05.000Z,68.43
2022-08-05T16:09:05.000Z,68.83
2022-08-05T16:10:05.000Z,67.54
2022-08-05T16:11:05.000Z,67.86
2022-08-05T16:11:05.000Z,67.86
2022-08-05T16:12:05.000Z,67.36
2022-08-05T16:12:05.000Z,67.36
2022-08-05T16:13:05.000Z,67.50
2022-08-05T16:13:05.000Z,67.50
2022-08-05T16:14:05.000Z,67.90
2022-08-05T16:14:05.000Z,67.90
2022-08-05T16:15:05.000Z,67.60
2022-08-05T16:15:05.000Z,67.60
2022-08-05T16:16:05.000Z,66.90
2022-08-05T16:17:05.000Z,67.70
2022-08-05T16:18:04.000Z,67.30
2022-08-05T16:19:04.000Z,66.90
2022-08-05T16:20:04.000Z,66.80
2022-08-05T16:21:04.000Z,65.61
2022-08-05T16:22:04.000Z,66.30
2022-08-05T16:23:04.000Z,66.30
2022-08-05T16:24:04.000Z,65.77
2022-08-05T16:25:04.000Z,64.78
2022-08-05T16:26:04.000Z,64.67
2022-08-05T16:27:04.000Z,63.58
2022-08-05T16:28:04.000Z,63.45
2022-08-05T16:29:04.000Z,62.29
2022-08-05T16:30:04.000Z,61.79
2022-08-05T16:31:04.000Z,62.95
2022-08-05T16:31:04.000Z,62.95
2022-08-05T16:32:04.000Z,62.29
2022-08-05T16:32:04.000Z,62.29
2022-08-05T16:33:04.000Z,61.69
2022-08-05T16:33:04.000Z,61.69
2022-08-05T16:34:04.000Z,61.69
2022-08-05T16:34:04.000Z,61.69
2022-08-05T16:35:04.000Z,61.99
2022-08-05T16:35:04.000Z,61.99
2022-08-05T16:36:04.000Z,62.08
2022-08-05T16:37:04.000Z,61.41
2022-08-05T16:38:04.000Z,62.21
2022-08-05T16:39:04.000Z,61.82
2022-08-05T16:40:04.000Z,62.34
2022-08-05T16:48:45.000Z,64.43
2022-08-05T16:48:45.000Z,64.83
2022-08-05T16:49:45.000Z,65.03
2022-08-05T16:50:45.000Z,65.03
2022-08-05T16:51:45.000Z,64.83
2022-08-05T16:52:45.000Z,64.66
2022-08-05T16:52:45.000Z,64.66
2022-08-05T16:53:45.000Z,65.06
2022-08-05T16:53:45.000Z,65.06
2022-08-05T16:54:45.000Z,65.16
2022-08-05T16:54:45.000Z,65.16
2022-08-05T16:55:45.000Z,65.16
2022-08-05T16:55:45.000Z,65.16
2022-08-05T16:56:45.000Z,64.96
2022-08-05T16:56:45.000Z,64.96
2022-08-05T16:57:45.000Z,65.49
2022-08-05T16:58:45.000Z,66.09
2022-08-05T16:59:45.000Z,66.29
2022-08-05T17:00:44.000Z,66.79
2022-08-05T17:01:44.000Z,66.39
2022-08-05T17:02:44.000Z,66.29
2022-08-05T17:03:44.000Z,66.39
2022-08-05T17:04:44.000Z,66.59
2022-08-05T17:05:44.000Z,66.39
2022-08-05T17:06:44.000Z,66.66
2022-08-05T17:07:44.000Z,65.66
2022-08-05T17:08:44.000Z,65.96
2022-08-05T17:09:44.000Z,65.56
2022-08-05T17:10:44.000Z,65.66
2022-08-05T17:11:44.000Z,65.16
2022-08-05T17:23:48.000Z,65.26
2022-08-05T17:23:48.000Z,65.69
2022-08-05T17:24:48.000Z,65.39
2022-08-05T17:25:48.000Z,65.19
2022-08-05T17:25:48.000Z,65.19
2022-08-05T17:26:48.000Z,65.49
2022-08-05T17:26:48.000Z,65.49
2022-08-05T17:27:48.000Z,65.29
2022-08-05T17:27:48.000Z,65.29
2022-08-05T17:28:48.000Z,65.99
2022-08-05T17:28:48.000Z,65.99